Time;durP1;ratioP1;P1;durP2;ratioP2;P2;SDS_P1;SDS_P2;PMS_P1;PMS_P2;Temp;Humidity;BMP_temperature;BMP_pressure;BME280_temperature;BME280_humidity;BME280_pressure;Samples;Min_cycle;Max_cycle;Signal;HPM_P1;HPM_P2
2023/12/13 01:03:44;;;;;;;8.13;5.32;;;;;;;7.44;100.00;99541.78;5042323;28;20366;-74
2023/12/13 01:06:09;;;;;;;8.00;5.00;;;;;;;7.41;100.00;99540.19;5033855;28;20032;-74
2023/12/13 01:08:37;;;;;;;11.30;5.00;;;;;;;7.40;100.00;99543.69;5034388;28;20329;-74
2023/12/13 01:11:06;;;;;;;15.60;5.22;;;;;;;7.40;100.00;99537.66;5025260;28;20109;-74
2023/12/13 01:13:32;;;;;;;8.32;5.00;;;;;;;7.40;100.00;99545.47;5034343;28;20037;-74
2023/12/13 01:15:57;;;;;;;9.30;4.68;;;;;;;7.42;100.00;99547.09;5034674;28;20415;-74
2023/12/13 01:18:22;;;;;;;10.13;4.80;;;;;;;7.42;100.00;99531.47;5034414;28;20064;-74
2023/12/13 01:20:48;;;;;;;6.07;4.53;;;;;;;7.44;100.00;99539.19;5034539;28;20044;-74
2023/12/13 01:23:13;;;;;;;7.72;3.90;;;;;;;7.43;100.00;99533.16;5034207;28;20033;-74
2023/12/13 01:25:39;;;;;;;5.78;4.28;;;;;;;7.45;100.00;99539.13;5033900;28;20037;-74
2023/12/13 01:28:04;;;;;;;5.07;4.05;;;;;;;7.43;100.00;99542.72;5016270;28;20029;-74
2023/12/13 01:30:30;;;;;;;11.02;3.80;;;;;;;7.41;100.00;99542.81;5033767;28;20253;-74
2023/12/13 01:32:56;;;;;;;6.65;3.72;;;;;;;7.43;100.00;99546.16;5034327;28;20025;-74
2023/12/13 01:35:21;;;;;;;6.53;4.07;;;;;;;7.43;100.00;99551.38;5034518;28;20033;-74
2023/12/13 01:37:46;;;;;;;6.90;4.15;;;;;;;7.44;100.00;99544.41;5033858;28;20377;-74
2023/12/13 01:40:12;;;;;;;7.70;4.07;;;;;;;7.44;100.00;99542.66;5034194;28;20209;-74
2023/12/13 01:42:38;;;;;;;12.52;4.43;;;;;;;7.43;100.00;99540.97;5034194;28;20363;-74
2023/12/13 01:45:04;;;;;;;8.13;4.22;;;;;;;7.44;100.00;99542.66;5034362;28;20083;-74
2023/12/13 01:47:29;;;;;;;6.43;4.40;;;;;;;7.43;100.00;99545.34;5034133;28;20134;-74
2023/12/13 01:49:54;;;;;;;6.20;4.50;;;;;;;7.43;100.00;99553.16;5034004;28;20037;-74
2023/12/13 01:52:21;;;;;;;4.07;3.67;;;;;;;7.43;100.00;99547.94;5034233;28;20101;-74
2023/12/13 01:54:47;;;;;;;5.28;3.67;;;;;;;7.42;100.00;99557.53;5034044;28;20247;-74
2023/12/13 01:57:14;;;;;;;4.35;3.95;;;;;;;7.43;100.00;99547.94;5015813;28;20036;-74
2023/12/13 01:59:41;;;;;;;7.22;3.60;;;;;;;7.46;100.00;99555.63;5015707;28;20108;-74
2023/12/13 02:02:06;;;;;;;3.78;3.47;;;;;;;7.47;100.00;99550.31;5033351;28;20044;-74
2023/12/13 02:04:34;;;;;;;7.88;3.92;;;;;;;7.46;100.00;99546.03;5033727;28;20248;-74
2023/12/13 02:07:01;;;;;;;9.07;3.65;;;;;;;7.45;100.00;99544.31;5033356;28;20048;-74
2023/12/13 02:09:26;;;;;;;7.10;4.25;;;;;;;7.43;100.00;99547.94;5034046;28;20048;-74
2023/12/13 02:11:51;;;;;;;5.13;3.70;;;;;;;7.42;100.00;99554.91;5033657;28;20034;-74
2023/12/13 02:14:18;;;;;;;4.22;3.50;;;;;;;7.40;100.00;99546.31;5034199;28;20037;-74
2023/12/13 02:16:43;;;;;;;4.60;3.47;;;;;;;7.39;100.00;99543.81;5015789;28;20043;-74
2023/12/13 02:19:10;;;;;;;5.25;4.10;;;;;;;7.38;100.00;99544.72;5033746;28;20288;-74
2023/12/13 02:21:36;;;;;;;11.93;5.22;;;;;;;7.34;100.00;99536.19;5033384;28;20041;-74
2023/12/13 02:24:04;;;;;;;4.80;4.20;;;;;;;7.34;100.00;99540.56;5034120;28;20154;-74
2023/12/13 02:26:30;;;;;;;5.35;4.55;;;;;;;7.32;100.00;99538.03;5032894;28;20041;-73
2023/12/13 02:28:56;;;;;;;7.47;4.68;;;;;;;7.33;100.00;99542.34;5032281;28;20068;-74
2023/12/13 02:31:22;;;;;;;10.05;6.93;;;;;;;7.31;100.00;99544.16;5032518;28;20084;-74
2023/12/13 02:33:47;;;;;;;7.97;6.05;;;;;;;7.32;100.00;99537.19;5031444;28;20109;-74
2023/12/13 02:36:13;;;;;;;8.65;6.95;;;;;;;7.30;100.00;99537.28;5014840;28;20363;-74
2023/12/13 02:38:40;;;;;;;9.75;7.22;;;;;;;7.27;100.00;99535.63;5034620;28;20307;-74
2023/12/13 02:41:06;;;;;;;14.10;9.70;;;;;;;7.24;100.00;99537.53;5036173;28;20114;-74
2023/12/13 02:43:32;;;;;;;9.63;8.65;;;;;;;7.21;100.00;99537.72;5018550;28;20029;-74
2023/12/13 02:45:57;;;;;;;14.52;10.13;;;;;;;7.17;100.00;99539.63;5037517;28;20219;-74
2023/12/13 02:48:23;;;;;;;11.55;9.23;;;;;;;7.20;100.00;99536.84;5037238;28;20380;-74
2023/12/13 02:50:48;;;;;;;16.65;10.45;;;;;;;7.18;100.00;99533.47;5036901;28;20328;-74
2023/12/13 02:53:13;;;;;;;12.38;9.70;;;;;;;7.17;100.00;99536.16;5018820;28;20039;-74
2023/12/13 02:55:39;;;;;;;13.27;10.20;;;;;;;7.13;100.00;99532.88;5019040;28;20056;-74
2023/12/13 02:58:04;;;;;;;10.95;9.70;;;;;;;7.13;100.00;99537.22;5036950;28;20029;-74
2023/12/13 03:00:30;;;;;;;12.02;10.10;;;;;;;7.06;100.00;99537.50;5036615;28;20079;-74
2023/12/13 03:02:58;;;;;;;11.52;10.23;;;;;;;7.06;100.00;99536.69;5036969;28;20101;-74
2023/12/13 03:05:24;;;;;;;12.50;9.60;;;;;;;7.05;100.00;99534.97;5037141;28;20044;-74
2023/12/13 03:07:50;;;;;;;10.02;8.93;;;;;;;7.05;100.00;99534.97;5036959;28;20072;-74
2023/12/13 03:10:15;;;;;;;14.77;9.52;;;;;;;7.05;100.00;99537.59;5019541;28;20029;-74
2023/12/13 03:12:41;;;;;;;12.95;9.63;;;;;;;7.04;100.00;99534.16;5036701;28;20119;-74
2023/12/13 03:15:07;;;;;;;11.50;8.88;;;;;;;7.06;100.00;99534.06;5019029;28;20236;-74
2023/12/13 03:17:32;;;;;;;12.95;9.10;;;;;;;7.03;100.00;99529.84;5018733;28;20087;-74
2023/12/13 03:19:58;;;;;;;9.93;8.75;;;;;;;7.02;100.00;99537.72;5018426;28;20029;-74
2023/12/13 03:22:23;;;;;;;9.52;8.57;;;;;;;7.01;100.00;99538.66;5018857;28;20037;-74
2023/12/13 03:24:50;;;;;;;10.48;8.18;;;;;;;7.01;100.00;99536.88;5036696;28;20080;-74
2023/12/13 03:27:15;;;;;;;11.23;8.10;;;;;;;7.01;100.00;99533.44;5037220;28;20041;-74
2023/12/13 03:29:41;;;;;;;8.95;7.40;;;;;;;7.01;100.00;99531.66;5036171;28;20037;-74
2023/12/13 03:32:06;;;;;;;13.27;9.02;;;;;;;6.98;100.00;99528.38;5036136;28;20041;-74
2023/12/13 03:34:31;;;;;;;9.82;7.82;;;;;;;7.00;100.00;99524.75;5035882;28;20033;-74
2023/12/13 03:36:57;;;;;;;11.95;7.40;;;;;;;7.03;100.00;99529.00;5035845;28;20198;-74
2023/12/13 03:39:22;;;;;;;12.35;7.55;;;;;;;6.99;100.00;99525.69;5031817;28;20041;-74
2023/12/13 03:41:47;;;;;;;10.95;6.72;;;;;;;7.00;100.00;99521.31;5036616;28;20521;-74
2023/12/13 03:44:13;;;;;;;9.50;6.50;;;;;;;6.97;100.00;99524.94;5036764;28;20037;-74
2023/12/13 03:46:38;;;;;;;8.27;6.50;;;;;;;7.00;100.00;99524.75;5036239;28;20037;-74
2023/12/13 03:49:03;;;;;;;10.82;6.25;;;;;;;7.04;100.00;99523.72;5017492;28;20112;-74
2023/12/13 03:56:19;;;;;;;8.75;5.63;;;;;;;7.03;100.00;99513.38;5032560;28;20272;-74
2023/12/13 03:58:44;;;;;;;9.63;5.78;;;;;;;7.03;100.00;99521.19;5035109;28;20108;-74
2023/12/13 04:01:11;;;;;;;12.10;5.45;;;;;;;7.03;100.00;99522.03;5034938;28;20040;-74
2023/12/13 04:03:36;;;;;;;5.97;5.00;;;;;;;7.03;100.00;99521.19;5035471;28;20359;-74
2023/12/13 04:06:03;;;;;;;5.65;4.43;;;;;;;7.04;100.00;99515.91;5035294;28;20038;-74
2023/12/13 04:08:28;;;;;;;8.90;5.80;;;;;;;7.04;100.00;99521.13;5035646;28;20104;-74
2023/12/13 04:10:53;;;;;;;12.30;6.15;;;;;;;7.08;100.00;99520.06;5035680;28;20040;-74
2023/12/13 04:13:19;;;;;;;5.60;5.10;;;;;;;7.08;100.00;99519.22;5035857;28;20041;-74
2023/12/13 04:15:44;;;;;;;11.57;6.10;;;;;;;7.08;100.00;99516.63;5035319;28;20037;-74
2023/12/13 04:18:10;;;;;;;11.02;5.40;;;;;;;7.08;100.00;99517.44;5035638;28;20249;-74
2023/12/13 04:20:36;;;;;;;6.78;5.82;;;;;;;7.11;100.00;99511.25;5035576;28;20051;-74
2023/12/13 04:23:01;;;;;;;7.68;6.03;;;;;;;7.11;100.00;99519.91;5035220;28;20120;-74
2023/12/13 04:25:27;;;;;;;10.63;6.05;;;;;;;7.15;100.00;99517.16;5035059;28;20043;-74
2023/12/13 04:27:52;;;;;;;9.10;6.00;;;;;;;7.16;100.00;99511.03;5034600;28;20423;-74
2023/12/13 04:30:17;;;;;;;8.23;5.43;;;;;;;7.16;100.00;99509.28;5016326;28;20061;-74
2023/12/13 04:32:43;;;;;;;12.18;6.60;;;;;;;7.15;100.00;99510.22;5033986;28;20080;-74
2023/12/13 04:35:10;;;;;;;8.75;5.65;;;;;;;7.18;100.00;99509.22;5017023;28;20266;-74
2023/12/13 04:37:36;;;;;;;7.45;6.13;;;;;;;7.20;100.00;99512.56;5034763;28;20383;-74
2023/12/13 04:40:03;;;;;;;9.40;6.15;;;;;;;7.20;100.00;99513.41;5034831;28;20040;-74
2023/12/13 04:42:28;;;;;;;10.57;6.43;;;;;;;7.21;100.00;99512.50;5016854;28;20037;-74
2023/12/13 04:44:54;;;;;;;8.60;5.90;;;;;;;7.24;100.00;99519.31;5034933;28;20040;-74
2023/12/13 04:47:19;;;;;;;15.27;6.97;;;;;;;7.20;100.00;99513.41;5035081;28;20082;-74
2023/12/13 04:49:45;;;;;;;13.32;7.28;;;;;;;7.20;100.00;99510.81;5034608;28;20220;-74
2023/12/13 04:52:10;;;;;;;11.68;7.00;;;;;;;7.22;100.00;99513.34;5034827;28;20041;-74
2023/12/13 04:54:37;;;;;;;19.17;8.13;;;;;;;7.20;100.00;99515.19;5034576;28;20041;-74
2023/12/13 04:57:03;;;;;;;13.55;6.90;;;;;;;7.21;100.00;99512.50;5034293;28;20375;-74
2023/12/13 04:59:28;;;;;;;11.52;6.82;;;;;;;7.23;100.00;99513.28;5034495;28;20100;-74
2023/12/13 05:01:53;;;;;;;10.80;7.28;;;;;;;7.24;100.00;99514.97;5033883;28;20044;-74
2023/12/13 05:04:19;;;;;;;11.05;6.65;;;;;;;7.25;100.00;99508.00;5034515;28;20053;-74
2023/12/13 05:06:44;;;;;;;9.25;6.43;;;;;;;7.26;100.00;99514.91;5034666;28;20130;-74
2023/12/13 05:09:09;;;;;;;16.27;7.32;;;;;;;7.26;100.00;99510.53;5034421;28;20030;-74
2023/12/13 05:11:35;;;;;;;8.88;6.85;;;;;;;7.28;100.00;99515.66;5034498;28;20049;-74
2023/12/13 05:14:00;;;;;;;8.55;7.10;;;;;;;7.29;100.00;99504.31;5034465;28;20037;-74
2023/12/13 05:16:25;;;;;;;14.98;8.25;;;;;;;7.30;100.00;99513.81;5034850;28;20045;-74
2023/12/13 05:18:51;;;;;;;12.65;7.25;;;;;;;7.30;100.00;99514.66;5034319;28;20236;-74
2023/12/13 05:21:16;;;;;;;13.23;7.78;;;;;;;7.29;100.00;99502.56;5035005;28;20320;-74
2023/12/13 05:23:42;;;;;;;10.60;7.32;;;;;;;7.30;100.00;99503.41;5034460;28;20037;-74
2023/12/13 05:26:07;;;;;;;10.73;7.28;;;;;;;7.30;100.00;99503.41;5034399;28;20033;-74
2023/12/13 05:28:32;;;;;;;12.27;8.15;;;;;;;7.27;100.00;99507.00;5033805;28;20045;-74
2023/12/13 05:30:58;;;;;;;16.30;7.93;;;;;;;7.28;100.00;99503.47;5034360;28;20274;-74
2023/12/13 05:33:23;;;;;;;14.98;7.68;;;;;;;7.28;100.00;99507.84;5033862;28;20069;-74
2023/12/13 05:35:49;;;;;;;14.07;7.53;;;;;;;7.29;100.00;99504.31;5034533;28;20253;-74
2023/12/13 05:38:14;;;;;;;13.63;7.47;;;;;;;7.28;100.00;99508.69;5033908;28;20064;-74
2023/12/13 05:40:39;;;;;;;17.50;8.52;;;;;;;7.26;100.00;99507.94;5015623;28;20246;-74
2023/12/13 05:43:05;;;;;;;13.90;6.97;;;;;;;7.28;100.00;99502.66;5034240;28;20240;-74
2023/12/13 05:45:30;;;;;;;10.00;6.45;;;;;;;7.29;100.00;99512.13;5033968;28;20039;-74
2023/12/13 05:47:55;;;;;;;19.70;8.48;;;;;;;7.29;100.00;99514.72;5034219;28;20333;-74
2023/12/13 05:50:21;;;;;;;17.33;8.57;;;;;;;7.27;100.00;99521.78;5034405;28;20248;-74
2023/12/13 05:52:46;;;;;;;15.00;8.32;;;;;;;7.29;100.00;99514.72;5033989;28;20029;-74
2023/12/13 05:55:12;;;;;;;22.65;9.15;;;;;;;7.27;100.00;99514.81;5033345;28;20249;-74
2023/12/13 05:57:37;;;;;;;12.90;8.00;;;;;;;7.29;100.00;99518.19;5033778;28;20064;-74
2023/12/13 06:00:06;;;;;;;14.93;8.43;;;;;;;7.32;100.00;99513.75;5033361;28;20456;-74
2023/12/13 06:02:34;;;;;;;13.32;9.35;;;;;;;7.31;100.00;99515.50;5033490;28;20049;-74
2023/12/13 06:05:00;;;;;;;17.23;9.00;;;;;;;7.32;100.00;99513.75;5033070;28;20057;-74
2023/12/13 06:07:25;;;;;;;14.73;8.00;;;;;;;7.34;100.00;99520.56;5034176;28;20099;-74
2023/12/13 06:09:50;;;;;;;14.23;8.25;;;;;;;7.36;100.00;99517.91;5033128;28;20340;-74
2023/12/13 06:12:17;;;;;;;14.40;8.85;;;;;;;7.37;100.00;99514.34;5016589;28;20288;-74
2023/12/13 06:14:43;;;;;;;20.35;8.63;;;;;;;7.36;100.00;99516.13;5026676;28;20075;-74
2023/12/13 06:17:08;;;;;;;17.10;8.30;;;;;;;7.38;100.00;99516.06;5037728;28;20233;-74
2023/12/13 06:19:34;;;;;;;21.00;9.05;;;;;;;7.38;100.00;99518.66;5037457;28;20040;-74
2023/12/13 06:21:59;;;;;;;18.70;8.70;;;;;;;7.37;100.00;99516.97;5034998;28;20041;-74
2023/12/13 06:24:25;;;;;;;15.65;7.72;;;;;;;7.42;100.00;99522.78;5033673;28;20101;-74
2023/12/13 06:26:50;;;;;;;12.13;7.05;;;;;;;7.42;100.00;99520.19;5033545;28;20045;-74
2023/12/13 06:29:16;;;;;;;12.57;8.32;;;;;;;7.43;100.00;99525.34;5035704;28;20040;-74
2023/12/13 06:31:41;;;;;;;14.82;8.02;;;;;;;7.47;100.00;99518.22;5036190;28;20049;-73
2023/12/13 06:34:07;;;;;;;25.65;8.52;;;;;;;7.50;100.00;99525.88;5036502;28;20367;-73
2023/12/13 06:36:32;;;;;;;21.73;7.88;;;;;;;7.55;100.00;99521.31;5036495;28;20413;-73
2023/12/13 06:38:57;;;;;;;14.48;7.60;;;;;;;7.58;100.00;99526.34;5035128;28;20036;-74
2023/12/13 06:41:23;;;;;;;14.50;7.55;;;;;;;7.60;100.00;99518.44;5035439;28;20048;-74
2023/12/13 06:43:48;;;;;;;11.13;7.38;;;;;;;7.58;100.00;99518.53;5036675;28;20048;-74
2023/12/13 06:46:14;;;;;;;12.05;6.70;;;;;;;7.57;100.00;99516.84;5037085;28;20056;-74
2023/12/13 06:48:39;;;;;;;13.35;6.78;;;;;;;7.57;100.00;99523.84;5036678;28;20124;-74
2023/12/13 06:51:06;;;;;;;18.45;7.18;;;;;;;7.55;100.00;99518.69;5036467;28;20101;-74
2023/12/13 06:53:34;;;;;;;12.85;6.90;;;;;;;7.55;100.00;99523.03;5036573;28;20049;-74
2023/12/13 06:55:59;;;;;;;11.27;6.67;;;;;;;7.55;100.00;99528.25;5032162;28;20033;-74
2023/12/13 06:58:24;;;;;;;11.10;6.03;;;;;;;7.57;100.00;99523.84;5037533;28;20043;-74
2023/12/13 07:00:50;;;;;;;13.10;6.97;;;;;;;7.57;100.00;99516.03;5034710;28;20072;-74
2023/12/13 07:03:15;;;;;;;11.43;7.38;;;;;;;7.56;100.00;99525.56;5036178;28;20049;-74
2023/12/13 07:05:41;;;;;;;12.63;7.25;;;;;;;7.56;100.00;99530.78;5035243;28;20097;-74
2023/12/13 07:08:06;;;;;;;18.73;7.68;;;;;;;7.56;100.00;99524.75;5036056;28;20098;-74
2023/12/13 07:10:32;;;;;;;11.80;6.80;;;;;;;7.59;100.00;99524.59;5036613;28;20540;-74
2023/12/13 07:12:57;;;;;;;15.82;7.10;;;;;;;7.57;100.00;99524.66;5037004;28;20048;-74
2023/12/13 07:15:22;;;;;;;12.30;7.20;;;;;;;7.56;100.00;99527.34;5037126;28;20141;-74
2023/12/13 07:17:48;;;;;;;15.02;7.57;;;;;;;7.56;100.00;99532.56;5018705;28;20277;-74
2023/12/13 07:20:13;;;;;;;14.50;7.55;;;;;;;7.56;100.00;99532.56;5037037;28;20348;-74
2023/12/13 07:22:39;;;;;;;12.05;6.78;;;;;;;7.57;100.00;99535.09;5036386;28;20099;-74
2023/12/13 07:25:06;;;;;;;11.20;7.00;;;;;;;7.57;100.00;99535.09;5029418;28;20378;-74
2023/12/13 07:27:33;;;;;;;7.15;6.45;;;;;;;7.58;100.00;99538.53;5035259;28;20128;-74
2023/12/13 07:29:58;;;;;;;17.85;9.02;;;;;;;7.56;100.00;99535.16;5035301;28;20029;-74
2023/12/13 07:32:24;;;;;;;12.07;6.85;;;;;;;7.57;100.00;99534.25;5035377;28;20094;-74
2023/12/13 07:34:49;;;;;;;11.23;6.80;;;;;;;7.59;100.00;99540.22;5034821;28;20097;-74
2023/12/13 07:37:14;;;;;;;10.40;6.25;;;;;;;7.58;100.00;99541.97;5033160;28;20045;-74
2023/12/13 07:39:40;;;;;;;12.02;7.13;;;;;;;7.59;100.00;99542.84;5033608;28;20033;-74
2023/12/13 07:42:05;;;;;;;12.27;6.90;;;;;;;7.60;100.00;99544.50;5035594;28;20037;-74
2023/12/13 07:44:33;;;;;;;11.70;7.28;;;;;;;7.59;100.00;99543.66;5035798;28;20021;-74
2023/12/13 07:46:59;;;;;;;12.32;7.57;;;;;;;7.61;100.00;99549.66;5030585;28;20333;-74
2023/12/13 07:49:25;;;;;;;14.07;7.03;;;;;;;7.60;100.00;99544.50;5034954;28;20042;-74
2023/12/13 07:51:50;;;;;;;11.88;7.10;;;;;;;7.61;100.00;99560.06;5030129;28;20044;-74
2023/12/13 07:54:16;;;;;;;8.23;7.38;;;;;;;7.61;100.00;99556.63;5035518;28;20064;-74
2023/12/13 07:56:42;;;;;;;10.25;7.80;;;;;;;7.60;100.00;99560.97;5034634;28;20328;-74
2023/12/13 07:59:07;;;;;;;10.63;7.07;;;;;;;7.62;100.00;99563.50;5034785;28;20064;-74
2023/12/13 08:01:33;;;;;;;16.05;8.50;;;;;;;7.60;100.00;99570.56;5035464;28;20037;-74
2023/12/13 08:03:58;;;;;;;14.45;8.25;;;;;;;7.61;100.00;99573.09;5036408;28;20049;-74
2023/12/13 08:06:24;;;;;;;19.42;9.60;;;;;;;7.61;100.00;99572.25;5034928;28;20096;-74
2023/12/13 08:08:51;;;;;;;13.82;8.20;;;;;;;7.63;100.00;99567.81;5034407;28;20086;-74
2023/12/13 08:11:16;;;;;;;12.98;8.80;;;;;;;7.63;100.00;99570.41;5034817;28;20367;-74
2023/12/13 08:13:42;;;;;;;10.38;8.15;;;;;;;7.64;100.00;99565.13;5035272;28;20030;-74
2023/12/13 08:16:08;;;;;;;15.40;8.90;;;;;;;7.67;100.00;99571.94;5036107;28;20040;-74
2023/12/13 08:18:33;;;;;;;11.93;9.00;;;;;;;7.66;100.00;99571.13;5036326;28;20041;-74
2023/12/13 08:20:58;;;;;;;17.98;9.02;;;;;;;7.68;100.00;99565.84;5035306;28;20384;-74
2023/12/13 08:23:24;;;;;;;18.88;10.00;;;;;;;7.70;100.00;99582.22;5039269;28;20251;-74
2023/12/13 08:25:49;;;;;;;15.40;9.55;;;;;;;7.69;100.00;99575.31;5034514;28;20045;-74
2023/12/13 08:28:14;;;;;;;14.80;9.18;;;;;;;7.69;100.00;99578.78;5032740;28;20041;-74
2023/12/13 08:30:40;;;;;;;15.38;9.55;;;;;;;7.69;100.00;99584.00;5035268;28;20104;-74
2023/12/13 08:33:05;;;;;;;20.75;11.05;;;;;;;7.71;100.00;99576.09;5028931;28;20048;-74
2023/12/13 08:35:30;;;;;;;15.07;9.88;;;;;;;7.71;100.00;99581.28;5025050;28;21210;-74
2023/12/13 08:37:56;;;;;;;14.77;9.75;;;;;;;7.73;100.00;99582.09;5030851;28;20115;-74
2023/12/13 08:40:21;;;;;;;18.13;10.55;;;;;;;7.75;100.00;99579.38;5032039;28;20052;-74
2023/12/13 08:42:47;;;;;;;15.95;9.57;;;;;;;7.78;100.00;99587.91;5031639;28;20193;-74
2023/12/13 08:45:13;;;;;;;20.33;10.15;;;;;;;7.81;100.00;99586.94;5032586;28;20029;-74
2023/12/13 08:47:38;;;;;;;15.52;9.57;;;;;;;7.82;100.00;99594.69;5032785;28;20029;-74
2023/12/13 08:50:04;;;;;;;19.80;10.55;;;;;;;7.85;100.00;99591.91;5031278;28;20112;-74
2023/12/13 08:52:30;;;;;;;28.10;12.60;;;;;;;7.86;100.00;99595.38;5028994;28;20037;-74
2023/12/13 08:54:56;;;;;;;21.17;11.35;;;;;;;7.88;100.00;99599.56;5030402;28;20037;-74
2023/12/13 08:57:21;;;;;;;22.58;10.27;;;;;;;7.91;100.00;99589.91;5028497;28;20052;-74
2023/12/13 08:59:46;;;;;;;16.35;10.25;;;;;;;7.93;100.00;99603.72;5028069;28;20095;-74
2023/12/13 09:02:12;;;;;;;18.92;10.77;;;;;;;7.95;100.00;99601.88;5011911;28;20352;-74
2023/12/13 09:04:37;;;;;;;17.05;10.35;;;;;;;7.95;100.00;99609.69;5028930;28;20230;-74
2023/12/13 09:07:03;;;;;;;16.77;10.57;;;;;;;7.94;100.00;99608.00;5029084;28;20079;-74
2023/12/13 09:09:31;;;;;;;16.48;10.35;;;;;;;7.96;100.00;99616.59;5029293;28;20029;-74
2023/12/13 09:11:57;;;;;;;16.50;9.70;;;;;;;7.97;100.00;99618.31;5027806;28;20365;-74
2023/12/13 09:14:22;;;;;;;15.15;9.68;;;;;;;7.97;100.00;99619.13;5027975;28;20044;-73
2023/12/13 09:16:48;;;;;;;24.45;11.73;;;;;;;7.98;100.00;99631.25;5028412;28;20032;-74
2023/12/13 09:19:13;;;;;;;21.65;10.63;;;;;;;7.98;100.00;99623.41;5028777;28;20037;-74
2023/12/13 09:21:40;;;;;;;21.85;11.05;;;;;;;8.00;100.00;99628.56;5028239;28;20033;-74
2023/12/13 09:24:07;;;;;;;19.05;9.32;;;;;;;8.00;100.00;99624.19;5028330;28;20021;-74
2023/12/13 09:26:33;;;;;;;18.95;10.45;;;;;;;8.01;100.00;99625.88;5028701;28;20040;-74
2023/12/13 09:28:58;;;;;;;17.20;9.55;;;;;;;8.01;100.00;99623.28;5029685;28;20033;-74
2023/12/13 09:31:24;;;;;;;19.30;10.18;;;;;;;8.02;100.00;99624.09;5028608;28;20064;-74
2023/12/13 09:33:51;;;;;;;15.90;9.05;;;;;;;8.03;100.00;99628.41;5029434;28;20083;-74
2023/12/13 09:36:17;;;;;;;18.00;10.02;;;;;;;8.02;100.00;99631.94;5029884;28;20040;-74
2023/12/13 09:38:42;;;;;;;18.83;9.50;;;;;;;8.04;100.00;99632.69;5029167;28;20041;-74
2023/12/13 09:41:08;;;;;;;15.38;9.68;;;;;;;8.04;100.00;99643.13;5029552;28;20041;-74
2023/12/13 09:43:40;;;;;;;19.92;10.30;;;;;;;8.03;100.00;99637.06;5029967;28;20036;-74
2023/12/13 09:46:07;;;;;;;22.85;10.65;;;;;;;8.04;100.00;99638.78;5029790;28;20037;-74
2023/12/13 09:48:35;;;;;;;16.02;9.85;;;;;;;8.04;100.00;99638.78;5027700;28;20036;-74
2023/12/13 09:51:04;;;;;;;16.17;9.65;;;;;;;8.07;100.00;99645.59;5011391;28;20025;-73
2023/12/13 09:53:29;;;;;;;;;;;;;;;8.07;100.00;99646.41;5027732;28;20260;-74
2023/12/13 09:55:55;;;;;;;18.15;9.48;;;;;;;8.10;100.00;99647.22;5028814;28;19994;-74
2023/12/13 09:58:20;;;;;;;17.80;8.93;;;;;;;8.11;100.00;99647.13;5026962;28;20099;-74
2023/12/13 10:00:45;;;;;;;16.45;9.65;;;;;;;8.13;100.00;99653.13;5028985;28;20324;-74
2023/12/13 10:03:11;;;;;;;15.15;9.68;;;;;;;8.15;100.00;99655.63;5029707;28;20248;-74
2023/12/13 10:05:41;;;;;;;15.85;9.48;;;;;;;8.16;100.00;99655.56;5028713;28;20033;-74
2023/12/13 10:08:08;;;;;;;19.38;10.30;;;;;;;8.16;100.00;99654.72;5028486;28;20100;-74
2023/12/13 10:10:36;;;;;;;18.20;10.37;;;;;;;8.16;100.00;99663.38;5029076;28;20064;-74
2023/12/13 10:13:02;;;;;;;23.40;11.38;;;;;;;8.18;100.00;99658.94;5029319;28;20391;-74
2023/12/13 10:15:31;;;;;;;19.60;10.88;;;;;;;8.19;100.00;99658.03;5029058;28;20404;-74
2023/12/13 10:17:58;;;;;;;24.65;11.98;;;;;;;8.22;100.00;99667.44;5029218;28;20425;-74
2023/12/13 10:20:23;;;;;;;21.73;12.15;;;;;;;8.23;100.00;99662.16;5028931;28;20033;-74
2023/12/13 10:22:49;;;;;;;20.70;11.63;;;;;;;8.25;100.00;99667.31;5027915;28;20057;-74
2023/12/13 10:25:14;;;;;;;30.58;13.40;;;;;;;8.24;100.00;99676.03;5029118;28;20128;-74
2023/12/13 10:27:41;;;;;;;23.45;11.95;;;;;;;8.25;100.00;99683.78;5026395;28;20041;-74
2023/12/13 10:30:07;;;;;;;28.15;12.38;;;;;;;8.25;100.00;99670.75;5027758;28;20279;-74
2023/12/13 10:32:33;;;;;;;26.65;11.85;;;;;;;8.28;100.00;99677.59;5027936;28;20037;-74
2023/12/13 10:34:59;;;;;;;27.42;12.43;;;;;;;8.29;100.00;99684.50;5028250;28;20348;-74
2023/12/13 10:37:27;;;;;;;22.40;12.00;;;;;;;8.32;100.00;99683.50;5027963;28;20291;-74
2023/12/13 10:39:56;;;;;;;19.73;10.40;;;;;;;8.32;100.00;99684.34;5028287;28;20112;-74
2023/12/13 10:42:24;;;;;;;20.48;10.70;;;;;;;8.33;100.00;99680.81;5028162;28;20041;-74
2023/12/13 10:44:51;;;;;;;19.80;11.18;;;;;;;8.34;100.00;99682.50;5027917;28;20214;-74
2023/12/13 10:47:17;;;;;;;22.58;11.80;;;;;;;8.35;100.00;99686.81;5028516;28;20325;-74
2023/12/13 10:49:43;;;;;;;36.17;12.80;;;;;;;8.31;100.00;99690.47;5027185;28;20125;-74
2023/12/13 10:52:10;;;;;;;37.95;12.35;;;;;;;8.33;100.00;99688.66;5028094;28;20041;-74
2023/12/13 10:54:37;;;;;;;25.33;12.63;;;;;;;8.33;100.00;99691.25;5027445;28;20041;-74
2023/12/13 10:57:03;;;;;;;23.60;11.60;;;;;;;8.36;100.00;99685.88;5027885;28;20032;-74
2023/12/13 10:59:29;;;;;;;17.88;10.57;;;;;;;8.38;100.00;99691.03;5030984;28;20037;-74
2023/12/13 11:01:56;;;;;;;15.95;9.93;;;;;;;8.42;100.00;99688.22;5031877;28;20112;-74
2023/12/13 11:04:23;;;;;;;29.02;13.48;;;;;;;8.43;100.00;99687.28;5032358;28;20419;-74
2023/12/13 11:06:48;;;;;;;24.63;11.68;;;;;;;8.44;100.00;99693.34;5031599;28;20041;-74
2023/12/13 11:09:17;;;;;;;18.05;10.98;;;;;;;8.47;100.00;99698.41;5031500;28;20159;-74
2023/12/13 11:11:43;;;;;;;23.70;11.43;;;;;;;8.48;100.00;99697.50;5031478;28;20431;-74
2023/12/13 11:14:10;;;;;;;19.50;12.15;;;;;;;8.48;100.00;99694.03;5031481;28;20029;-74
2023/12/13 11:16:45;;;;;;;20.77;11.70;;;;;;;8.47;100.00;99697.59;5031856;28;20348;-74
2023/12/13 11:19:19;;;;;;;19.08;11.40;;;;;;;8.46;100.00;99696.75;5031727;28;20029;-74
2023/12/13 11:21:46;;;;;;;19.27;11.82;;;;;;;8.47;100.00;99700.19;5031625;28;20866;-74
2023/12/13 11:24:16;;;;;;;26.02;12.63;;;;;;;8.47;100.00;99705.41;5032063;28;20328;-74
2023/12/13 11:26:45;;;;;;;20.08;12.90;;;;;;;8.47;100.00;99708.84;5013340;28;20033;-74
2023/12/13 11:29:15;;;;;;;17.20;12.05;;;;;;;8.48;100.00;99709.69;5032817;28;20340;-74
2023/12/13 11:31:56;;;;;;;15.63;10.82;;;;;;;8.49;100.00;99709.63;5031456;28;20126;-74
2023/12/13 11:34:31;;;;;;;15.90;11.18;;;;;;;8.50;100.00;99708.72;5031766;28;20032;-74
2023/12/13 11:36:57;;;;;;;21.83;12.68;;;;;;;8.50;100.00;99720.91;5013811;28;20061;-74
2023/12/13 11:39:22;;;;;;;15.95;11.10;;;;;;;8.50;100.00;99718.31;5032020;28;21184;-74
2023/12/13 11:41:48;;;;;;;16.15;11.02;;;;;;;8.50;100.00;99724.38;5031073;28;20064;-74
2023/12/13 11:44:14;;;;;;;13.60;10.25;;;;;;;8.52;100.00;99725.13;5031870;28;20021;-74
2023/12/13 11:46:39;;;;;;;16.65;11.52;;;;;;;8.53;100.00;99723.34;5031632;28;20313;-74
2023/12/13 11:49:04;;;;;;;18.38;11.38;;;;;;;8.53;100.00;99721.63;5030838;28;20037;-74
2023/12/13 11:51:30;;;;;;;22.50;11.65;;;;;;;8.52;100.00;99722.53;5030419;28;20025;-74
2023/12/13 11:53:55;;;;;;;17.95;11.05;;;;;;;8.51;100.00;99720.81;5030296;28;20069;-74
2023/12/13 11:56:21;;;;;;;24.25;12.73;;;;;;;8.51;100.00;99726.03;5030016;28;20329;-74
2023/12/13 11:58:49;;;;;;;18.65;11.73;;;;;;;8.51;100.00;99731.25;5030708;28;20044;-74
2023/12/13 12:01:15;;;;;;;21.02;12.07;;;;;;;8.50;100.00;99726.97;5031341;28;20477;-73
2023/12/13 12:03:41;;;;;;;20.80;12.02;;;;;;;8.51;100.00;99728.66;5029281;28;20129;-74
2023/12/13 12:06:15;;;;;;;18.45;11.40;;;;;;;8.53;100.00;99742.50;5031774;28;20037;-74
2023/12/13 12:08:40;;;;;;;17.20;11.40;;;;;;;8.53;100.00;99739.88;5031412;28;20068;-74
2023/12/13 12:11:07;;;;;;;18.23;11.40;;;;;;;8.53;100.00;99741.63;5030611;28;20048;-74
2023/12/13 12:13:32;;;;;;;15.65;10.80;;;;;;;8.53;100.00;99742.50;5030978;28;20100;-74
2023/12/13 12:15:59;;;;;;;15.55;10.80;;;;;;;8.53;100.00;99742.50;5031352;28;20033;-74
2023/12/13 12:18:26;;;;;;;22.30;11.45;;;;;;;8.52;100.00;99743.41;5031401;28;20162;-74
2023/12/13 12:20:51;;;;;;;18.08;11.63;;;;;;;8.53;100.00;99741.63;5031553;28;20352;-74
2023/12/13 12:23:18;;;;;;;19.67;11.70;;;;;;;8.52;100.00;99750.38;5031125;28;20375;-74
2023/12/13 12:25:44;;;;;;;19.23;10.73;;;;;;;8.53;100.00;99749.44;5030518;28;20056;-74